createdAt,value
2018-06-03T00:00:33.454Z,1.47
2018-06-03T00:03:01.802Z,1.63
2018-06-03T00:05:30.123Z,1.70
2018-06-03T00:07:58.470Z,1.70
2018-06-03T00:10:26.808Z,1.60
2018-06-03T00:12:55.149Z,1.70
2018-06-03T00:15:23.638Z,1.60
2018-06-03T00:17:52.062Z,1.40
2018-06-03T00:20:30.360Z,1.37
2018-06-03T00:22:58.701Z,1.30
2018-06-03T00:25:27.064Z,1.33
2018-06-03T00:27:55.407Z,1.53
2018-06-03T00:30:23.763Z,1.43
2018-06-03T00:32:52.147Z,1.30
2018-06-03T00:35:20.504Z,1.90
2018-06-03T00:37:49.001Z,1.13
2018-06-03T00:40:18.605Z,1.43
2018-06-03T00:42:47.431Z,1.20
2018-06-03T00:45:15.755Z,1.20
2018-06-03T00:47:44.022Z,1.50
2018-06-03T00:50:12.421Z,1.30
2018-06-03T00:52:40.939Z,1.10
2018-06-03T00:55:09.538Z,1.37
2018-06-03T00:57:37.803Z,1.17
2018-06-03T01:00:06.177Z,1.23
2018-06-03T01:02:34.581Z,1.50
2018-06-03T01:05:02.967Z,1.30
2018-06-03T01:07:31.280Z,1.40
2018-06-03T01:09:59.586Z,1.40
2018-06-03T01:12:27.887Z,1.30
2018-06-03T01:14:56.192Z,1.50
2018-06-03T01:17:24.571Z,1.37
2018-06-03T01:19:52.879Z,1.20
2018-06-03T01:22:21.146Z,1.43
2018-06-03T01:24:49.715Z,1.40
2018-06-03T01:27:18.032Z,1.43
2018-06-03T01:29:46.827Z,1.27
2018-06-03T01:32:15.164Z,1.30
2018-06-03T01:34:43.449Z,1.20
2018-06-03T01:37:11.742Z,1.50
2018-06-03T01:39:40.093Z,1.30
2018-06-03T01:42:08.385Z,1.50
2018-06-03T01:44:36.696Z,1.60
2018-06-03T01:47:05.078Z,2.13
2018-06-03T01:49:33.423Z,1.40
2018-06-03T01:52:01.757Z,2.00
2018-06-03T01:54:30.240Z,1.50
2018-06-03T01:56:58.573Z,1.30
2018-06-03T01:59:26.971Z,1.70
2018-06-03T02:01:55.263Z,1.43
2018-06-03T02:04:23.653Z,1.40
2018-06-03T02:06:52.241Z,1.27
2018-06-03T02:09:20.623Z,1.27
2018-06-03T02:11:49.040Z,1.27
2018-06-03T02:14:17.572Z,1.40
2018-06-03T02:16:45.946Z,1.40
2018-06-03T02:19:14.245Z,1.40
2018-06-03T02:21:42.565Z,1.10
2018-06-03T02:24:10.906Z,1.27
2018-06-03T02:26:39.209Z,1.33
2018-06-03T02:29:07.555Z,1.50
2018-06-03T02:31:35.856Z,1.60
2018-06-03T02:34:04.155Z,1.33
2018-06-03T02:36:32.505Z,1.43
2018-06-03T02:39:00.803Z,1.17
2018-06-03T02:41:29.130Z,1.03
2018-06-03T02:43:57.445Z,1.33
2018-06-03T02:46:25.795Z,1.10
2018-06-03T02:48:55.121Z,1.60
2018-06-03T02:51:23.545Z,1.60
2018-06-03T02:53:52.167Z,1.33
2018-06-03T02:56:20.513Z,1.23
2018-06-03T02:58:48.820Z,1.70
2018-06-03T03:01:17.189Z,1.60
2018-06-03T03:03:45.488Z,1.30
2018-06-03T03:06:13.893Z,1.43
2018-06-03T03:08:42.232Z,1.17
2018-06-03T03:11:10.538Z,1.37
2018-06-03T03:13:38.806Z,1.40
2018-06-03T03:16:07.125Z,1.57
2018-06-03T03:18:35.420Z,1.37
2018-06-03T03:21:03.810Z,1.30
2018-06-03T03:23:32.205Z,1.47
2018-06-03T03:26:00.623Z,1.60
2018-06-03T03:28:28.947Z,1.40
2018-06-03T03:30:57.272Z,1.43
2018-06-03T03:33:25.599Z,1.20
2018-06-03T03:35:54.130Z,1.43
2018-06-03T03:38:22.521Z,1.40
2018-06-03T03:40:50.991Z,1.40
2018-06-03T03:43:19.365Z,1.47
2018-06-03T03:45:48.153Z,1.53
2018-06-03T03:48:16.507Z,1.60
2018-06-03T03:50:44.627Z,1.33
2018-06-03T03:53:12.938Z,1.27
2018-06-03T03:55:41.265Z,1.10
2018-06-03T03:58:09.560Z,1.43
2018-06-03T04:00:37.989Z,1.40
2018-06-03T04:03:06.773Z,1.20
2018-06-03T04:05:35.146Z,1.33
2018-06-03T04:08:03.419Z,1.50
2018-06-03T04:10:31.791Z,1.87
2018-06-03T04:13:00.110Z,1.30
2018-06-03T04:15:28.389Z,1.40
2018-06-03T04:17:56.880Z,1.20
2018-06-03T04:20:25.295Z,1.60
2018-06-03T04:22:53.751Z,1.63
2018-06-03T04:25:22.207Z,1.40
2018-06-03T04:27:50.779Z,1.40
2018-06-03T04:30:19.327Z,1.73
2018-06-03T04:32:47.795Z,1.40
2018-06-03T04:35:16.110Z,1.60
2018-06-03T04:37:44.450Z,1.43
2018-06-03T04:40:12.766Z,1.20
2018-06-03T04:42:41.350Z,1.67
2018-06-03T04:45:09.853Z,1.40
2018-06-03T04:47:38.165Z,1.77
2018-06-03T04:50:06.461Z,1.70
2018-06-03T04:52:34.808Z,1.33
2018-06-03T04:55:03.230Z,1.50
2018-06-03T04:57:32.521Z,1.83
2018-06-03T05:00:00.798Z,1.47
2018-06-03T05:02:29.111Z,1.77
2018-06-03T05:04:57.474Z,1.60
2018-06-03T05:07:25.999Z,1.50
2018-06-03T05:09:54.560Z,1.33
2018-06-03T05:12:22.909Z,1.20
2018-06-03T05:14:51.212Z,1.40
2018-06-03T05:17:19.620Z,1.60
2018-06-03T05:19:48.041Z,1.30
2018-06-03T05:22:16.346Z,1.80
2018-06-03T05:24:44.757Z,1.43
2018-06-03T05:27:13.069Z,1.27
2018-06-03T05:29:41.486Z,1.57
2018-06-03T05:32:10.048Z,1.40
2018-06-03T05:34:38.460Z,1.73
2018-06-03T05:37:06.816Z,1.53
2018-06-03T05:39:35.323Z,1.90
2018-06-03T05:42:03.692Z,1.63
2018-06-03T05:44:31.738Z,1.57
2018-06-03T05:47:00.052Z,1.70
2018-06-03T05:49:28.360Z,1.50
2018-06-03T05:51:56.876Z,1.50
2018-06-03T05:54:25.205Z,1.43
2018-06-03T05:56:53.690Z,1.70
2018-06-03T05:59:22.120Z,1.50
2018-06-03T06:01:50.541Z,1.27
2018-06-03T06:04:19.000Z,1.80
2018-06-03T06:06:48.138Z,1.40
2018-06-03T06:09:16.550Z,1.63
2018-06-03T06:11:44.896Z,1.67
2018-06-03T06:14:13.241Z,1.63
2018-06-03T06:16:41.557Z,1.60
2018-06-03T06:19:09.872Z,1.90
2018-06-03T06:21:38.163Z,1.80
2018-06-03T06:24:06.420Z,1.70
2018-06-03T06:26:34.708Z,1.50
2018-06-03T06:29:03.037Z,1.50
2018-06-03T06:31:31.951Z,1.70
2018-06-03T06:34:00.280Z,2.00
2018-06-03T06:36:28.688Z,2.17
2018-06-03T06:38:57.725Z,1.70
2018-06-03T06:41:26.014Z,1.83
2018-06-03T06:43:54.481Z,1.63
2018-06-03T06:46:22.857Z,1.77
2018-06-03T06:48:51.214Z,1.90
2018-06-03T06:51:19.536Z,1.57
2018-06-03T06:53:47.959Z,1.60
2018-06-03T06:56:16.248Z,1.70
2018-06-03T06:58:44.544Z,1.33
2018-06-03T07:01:12.992Z,1.33
2018-06-03T07:03:41.317Z,2.00
2018-06-03T07:06:09.586Z,2.50
2018-06-03T07:08:37.955Z,1.47
2018-06-03T07:11:06.234Z,1.47
2018-06-03T07:13:34.585Z,1.60
2018-06-03T07:16:02.952Z,1.53
2018-06-03T07:18:31.328Z,1.20
2018-06-03T07:20:59.783Z,1.60
2018-06-03T07:23:28.131Z,1.17
2018-06-03T07:25:56.560Z,1.33
2018-06-03T07:28:27.786Z,1.40
2018-06-03T07:30:56.706Z,1.50
2018-06-03T07:33:25.084Z,1.20
2018-06-03T07:35:53.435Z,1.20
2018-06-03T07:38:21.825Z,1.40
2018-06-03T07:40:50.135Z,1.23
2018-06-03T07:43:18.539Z,0.93
2018-06-03T07:45:46.846Z,1.43
2018-06-03T07:48:16.487Z,1.20
2018-06-03T07:50:44.967Z,1.10
2018-06-03T07:53:13.333Z,1.30
2018-06-03T07:55:41.654Z,1.17
2018-06-03T07:58:09.954Z,1.20
2018-06-03T08:00:38.307Z,1.33
2018-06-03T08:03:06.320Z,1.50
2018-06-03T08:05:34.759Z,1.17
2018-06-03T08:08:03.076Z,1.50
2018-06-03T08:10:31.182Z,1.43
2018-06-03T08:12:59.684Z,1.10
2018-06-03T08:15:28.110Z,1.07
2018-06-03T08:17:56.616Z,1.47
2018-06-03T08:20:24.974Z,1.63
2018-06-03T08:22:53.539Z,1.80
2018-06-03T08:25:21.969Z,1.40
2018-06-03T08:27:50.413Z,1.30
2018-06-03T08:30:18.738Z,1.35
2018-06-03T08:32:47.020Z,1.60
2018-06-03T08:35:15.320Z,2.00
2018-06-03T08:37:43.729Z,1.70
2018-06-03T08:40:12.185Z,1.75
2018-06-03T08:42:43.800Z,1.60
2018-06-03T08:45:14.182Z,2.00
2018-06-03T08:47:42.529Z,1.42
2018-06-03T08:50:10.843Z,1.80
2018-06-03T08:52:39.252Z,1.57
2018-06-03T08:55:07.684Z,1.17
2018-06-03T08:57:36.037Z,1.37
2018-06-03T09:00:05.808Z,1.37
2018-06-03T09:02:34.201Z,1.62
2018-06-03T09:05:02.739Z,1.52
2018-06-03T09:07:31.095Z,1.70
2018-06-03T09:10:00.302Z,1.30
2018-06-03T09:12:29.938Z,1.45
2018-06-03T09:14:58.666Z,1.37
2018-06-03T09:17:27.045Z,1.43
2018-06-03T09:19:55.419Z,1.40
2018-06-03T09:22:23.888Z,1.50
2018-06-03T09:24:52.233Z,1.53
2018-06-03T09:27:20.586Z,1.27
2018-06-03T09:29:48.916Z,1.40
2018-06-03T09:32:17.212Z,1.60
2018-06-03T09:34:45.524Z,1.23
2018-06-03T09:37:13.895Z,1.50
2018-06-03T09:39:42.277Z,1.40
2018-06-03T09:42:10.700Z,1.40
2018-06-03T09:44:39.071Z,1.30
2018-06-03T09:47:08.188Z,1.00
2018-06-03T09:49:36.577Z,1.03
2018-06-03T09:52:04.969Z,1.33
2018-06-03T09:54:33.324Z,1.20
2018-06-03T09:57:01.869Z,1.20
2018-06-03T09:59:30.304Z,1.00
2018-06-03T10:01:58.898Z,1.40
2018-06-03T10:04:27.305Z,0.98
2018-06-03T10:06:56.321Z,1.07
2018-06-03T10:09:24.683Z,0.95
2018-06-03T10:11:53.118Z,1.35
2018-06-03T10:14:21.513Z,1.02
2018-06-03T10:16:49.947Z,1.00
2018-06-03T10:19:18.443Z,0.90
2018-06-03T10:21:47.029Z,0.68
2018-06-03T10:24:15.484Z,1.10
2018-06-03T10:26:43.847Z,0.95
2018-06-03T10:29:12.231Z,1.10
2018-06-03T10:31:40.522Z,0.82
2018-06-03T10:34:08.795Z,0.98
2018-06-03T10:36:37.635Z,0.65
2018-06-03T10:39:07.241Z,1.00
2018-06-03T10:41:35.661Z,0.90
2018-06-03T10:44:04.166Z,0.90
2018-06-03T10:46:32.624Z,0.90
2018-06-03T10:49:01.345Z,1.05
2018-06-03T10:51:29.735Z,0.80
2018-06-03T10:53:58.856Z,1.02
2018-06-03T10:56:27.418Z,0.78
2018-06-03T10:58:56.008Z,1.10
2018-06-03T11:01:24.558Z,1.00
2018-06-03T11:03:53.027Z,0.70
2018-06-03T11:06:21.443Z,0.93
2018-06-03T11:08:49.942Z,0.90
2018-06-03T11:11:18.471Z,1.10
2018-06-03T11:13:46.822Z,1.00
2018-06-03T11:16:15.277Z,0.82
2018-06-03T11:18:43.733Z,0.72
2018-06-03T11:21:12.075Z,0.80
2018-06-03T11:23:40.451Z,1.05
2018-06-03T11:26:09.017Z,0.75
2018-06-03T11:28:37.384Z,0.90
2018-06-03T11:31:05.824Z,0.60
2018-06-03T11:33:34.282Z,1.02
2018-06-03T11:36:02.975Z,0.82
2018-06-03T11:38:31.589Z,0.80
2018-06-03T11:41:00.147Z,1.00
2018-06-03T11:43:28.727Z,0.90
2018-06-03T11:45:57.414Z,0.95
2018-06-03T11:48:26.017Z,0.70
2018-06-03T11:50:54.419Z,0.95
2018-06-03T11:53:22.780Z,0.88
2018-06-03T11:55:51.811Z,1.00
2018-06-03T11:58:40.412Z,0.85
2018-06-03T12:01:09.398Z,0.80
2018-06-03T12:03:38.093Z,0.98
2018-06-03T12:06:06.856Z,0.80
2018-06-03T12:08:35.205Z,0.75
2018-06-03T12:11:04.222Z,0.82
2018-06-03T12:13:32.801Z,0.95
2018-06-03T12:16:02.011Z,0.90
2018-06-03T12:18:30.752Z,0.72
2018-06-03T12:20:59.278Z,0.78
2018-06-03T12:23:27.902Z,0.90
2018-06-03T12:25:56.317Z,0.80
2018-06-03T12:28:24.773Z,0.75
2018-06-03T12:30:53.195Z,0.70
2018-06-03T12:33:22.034Z,0.62
2018-06-03T12:35:50.531Z,0.80
2018-06-03T12:38:19.930Z,0.80
2018-06-03T12:40:48.445Z,0.90
2018-06-03T12:43:17.115Z,0.88
2018-06-03T12:45:45.519Z,0.90
2018-06-03T12:48:13.978Z,0.68
2018-06-03T12:50:42.810Z,0.90
2018-06-03T12:53:13.343Z,0.90
2018-06-03T12:55:41.840Z,0.88
2018-06-03T12:58:10.257Z,0.68
2018-06-03T13:00:41.860Z,0.90
2018-06-03T13:03:10.906Z,0.90
2018-06-03T13:05:39.567Z,0.60
2018-06-03T13:08:08.250Z,0.65
2018-06-03T13:10:36.824Z,0.68
2018-06-03T13:13:05.644Z,0.80
2018-06-03T13:15:34.243Z,0.62
2018-06-03T13:18:02.565Z,0.60
2018-06-03T13:20:31.174Z,0.70
2018-06-03T13:22:59.625Z,0.90
2018-06-03T13:25:28.100Z,0.70
2018-06-03T13:27:56.471Z,0.65
2018-06-03T13:30:24.830Z,0.78
2018-06-03T13:32:53.433Z,0.62
2018-06-03T13:35:21.944Z,0.60
2018-06-03T13:37:50.282Z,0.78
2018-06-03T13:40:18.631Z,0.62
2018-06-03T13:42:47.057Z,0.75
2018-06-03T13:45:15.574Z,0.57
2018-06-03T13:47:44.048Z,0.70
2018-06-03T13:50:12.554Z,0.53
2018-06-03T13:52:40.891Z,0.68
2018-06-03T13:55:09.379Z,0.78
2018-06-03T13:57:37.720Z,0.50
2018-06-03T14:00:06.333Z,0.60
2018-06-03T14:02:34.766Z,0.85
2018-06-03T14:05:03.212Z,0.65
2018-06-03T14:07:31.639Z,0.55
2018-06-03T14:09:59.984Z,0.60
2018-06-03T14:12:28.430Z,0.53
2018-06-03T14:14:56.788Z,0.72
2018-06-03T14:17:25.131Z,0.57
2018-06-03T14:19:53.504Z,0.60
2018-06-03T14:22:22.005Z,0.72
2018-06-03T14:24:50.543Z,0.40
2018-06-03T14:27:19.061Z,1.05
2018-06-03T14:29:50.304Z,1.27
2018-06-03T14:32:22.550Z,0.53
2018-06-03T14:34:51.006Z,0.80
2018-06-03T14:37:19.438Z,0.78
2018-06-03T14:39:48.281Z,0.72
2018-06-03T14:42:16.659Z,0.60
2018-06-03T14:44:45.063Z,0.57
2018-06-03T14:47:13.673Z,0.50
2018-06-03T14:49:42.026Z,0.60
2018-06-03T14:52:10.548Z,0.68
2018-06-03T14:54:38.954Z,0.50
2018-06-03T14:57:07.491Z,0.53
2018-06-03T14:59:35.743Z,0.60
2018-06-03T15:02:04.132Z,0.55
2018-06-03T15:04:32.740Z,0.53
2018-06-03T15:07:01.119Z,0.50
2018-06-03T15:09:29.411Z,0.50
2018-06-03T15:11:57.739Z,0.70
2018-06-03T15:14:26.241Z,0.57
2018-06-03T15:16:54.565Z,0.45
2018-06-03T15:19:22.999Z,0.75
2018-06-03T15:21:51.371Z,0.60
2018-06-03T15:24:19.694Z,0.80
2018-06-03T15:26:48.119Z,0.60
2018-06-03T15:29:16.510Z,0.50
2018-06-03T15:31:44.845Z,0.50
2018-06-03T15:34:13.419Z,0.50
2018-06-03T15:36:42.197Z,0.60
2018-06-03T15:39:10.517Z,0.45
2018-06-03T15:41:38.922Z,0.78
2018-06-03T15:44:07.340Z,0.70
2018-06-03T15:46:35.692Z,0.80
2018-06-03T15:49:04.081Z,0.62
2018-06-03T15:51:32.399Z,0.70
2018-06-03T15:54:00.798Z,0.60
2018-06-03T15:56:29.807Z,0.68
2018-06-03T15:58:58.367Z,0.60
2018-06-03T16:01:26.734Z,0.60
2018-06-03T16:03:55.488Z,0.60
2018-06-03T16:06:24.300Z,0.60
2018-06-03T16:08:53.179Z,0.60
2018-06-03T16:11:21.679Z,0.55
2018-06-03T16:13:50.024Z,0.67
2018-06-03T16:16:18.429Z,0.87
2018-06-03T16:18:47.377Z,0.77
2018-06-03T16:21:16.092Z,0.80
2018-06-03T16:23:44.576Z,0.83
2018-06-03T16:26:13.046Z,0.50
2018-06-03T16:28:41.680Z,0.60
2018-06-03T16:31:10.383Z,0.63
2018-06-03T16:33:38.676Z,0.90
2018-06-03T16:36:07.126Z,0.60
2018-06-03T16:38:37.069Z,0.80
2018-06-03T16:41:05.435Z,0.50
2018-06-03T16:43:33.941Z,0.77
2018-06-03T16:46:02.275Z,0.70
2018-06-03T16:48:31.725Z,0.83
2018-06-03T16:51:01.370Z,0.70
2018-06-03T16:53:30.032Z,0.60
2018-06-03T16:55:58.401Z,0.70
2018-06-03T16:58:26.688Z,0.73
2018-06-03T17:00:55.129Z,0.60
2018-06-03T17:03:23.591Z,0.60
2018-06-03T17:06:01.017Z,0.47
2018-06-03T17:08:30.209Z,0.80
2018-06-03T17:10:58.676Z,0.83
2018-06-03T17:13:27.265Z,0.77
2018-06-03T17:15:55.783Z,0.70
2018-06-03T17:18:24.121Z,1.27
2018-06-03T17:20:52.688Z,0.87
2018-06-03T17:23:21.230Z,0.90
2018-06-03T17:25:49.749Z,0.90
2018-06-03T17:28:18.218Z,0.70
2018-06-03T17:30:46.812Z,0.60
2018-06-03T17:33:15.485Z,0.50
2018-06-03T17:35:44.311Z,0.70
2018-06-03T17:38:12.784Z,0.50
2018-06-03T17:40:41.212Z,0.80
2018-06-03T17:43:09.731Z,0.60
2018-06-03T17:45:39.129Z,0.70
2018-06-03T17:48:07.473Z,0.50
2018-06-03T17:50:35.784Z,0.57
2018-06-03T17:53:04.166Z,0.67
2018-06-03T17:55:32.564Z,0.67
2018-06-03T17:58:00.892Z,0.60
2018-06-03T18:00:29.241Z,0.70
2018-06-03T18:02:57.772Z,1.00
2018-06-03T18:05:26.383Z,0.63
2018-06-03T18:07:55.012Z,0.80
2018-06-03T18:10:23.336Z,0.63
2018-06-03T18:12:51.809Z,0.80
2018-06-03T18:15:20.381Z,0.73
2018-06-03T18:17:49.014Z,0.73
2018-06-03T18:20:17.625Z,0.60
2018-06-03T18:22:46.101Z,0.60
2018-06-03T18:25:14.131Z,0.70
2018-06-03T18:27:42.500Z,0.67
2018-06-03T18:30:11.072Z,0.70
2018-06-03T18:32:39.495Z,0.60
2018-06-03T18:35:07.812Z,0.70
2018-06-03T18:37:36.231Z,0.60
2018-06-03T18:40:07.783Z,0.90
2018-06-03T18:42:36.068Z,0.80
2018-06-03T18:45:04.488Z,0.80
2018-06-03T18:47:32.987Z,0.80
2018-06-03T18:50:01.504Z,0.70
2018-06-03T18:52:29.934Z,0.90
2018-06-03T18:54:58.314Z,0.60
2018-06-03T18:57:26.948Z,0.77
2018-06-03T18:59:55.416Z,0.90
2018-06-03T19:02:23.806Z,0.70
2018-06-03T19:04:52.293Z,0.50
2018-06-03T19:07:20.701Z,0.80
2018-06-03T19:09:49.300Z,0.70
2018-06-03T19:12:17.853Z,1.00
2018-06-03T19:14:46.601Z,0.60
2018-06-03T19:17:14.994Z,0.77
2018-06-03T19:19:43.344Z,0.80
2018-06-03T19:22:11.756Z,0.67
2018-06-03T19:24:40.194Z,0.60
2018-06-03T19:27:08.515Z,0.70
2018-06-03T19:29:36.947Z,0.60
2018-06-03T19:32:05.443Z,0.60
2018-06-03T19:34:33.843Z,0.60
2018-06-03T19:37:02.215Z,0.63
2018-06-03T19:39:30.527Z,0.70
2018-06-03T19:41:59.264Z,0.70
2018-06-03T19:44:27.647Z,0.70
2018-06-03T19:46:56.524Z,0.90
2018-06-03T19:49:24.859Z,0.77
2018-06-03T19:51:53.270Z,0.90
2018-06-03T19:54:21.949Z,0.80
2018-06-03T19:56:50.404Z,0.60
2018-06-03T19:59:18.856Z,0.70
2018-06-03T20:01:48.128Z,0.80
2018-06-03T20:04:16.644Z,0.67
2018-06-03T20:06:45.062Z,0.77
2018-06-03T20:09:13.635Z,0.93
2018-06-03T20:11:41.946Z,0.70
2018-06-03T20:14:10.236Z,1.30
2018-06-03T20:16:38.704Z,0.73
2018-06-03T20:19:07.043Z,0.83
2018-06-03T20:21:35.541Z,0.60
2018-06-03T20:24:04.037Z,1.00
2018-06-03T20:26:32.722Z,0.87
2018-06-03T20:29:01.206Z,0.90
2018-06-03T20:31:29.648Z,0.90
2018-06-03T20:33:58.194Z,0.60
2018-06-03T20:36:26.520Z,0.90
2018-06-03T20:38:54.852Z,0.93
2018-06-03T20:41:23.203Z,0.90
2018-06-03T20:43:51.757Z,0.83
2018-06-03T20:46:20.398Z,0.90
2018-06-03T20:48:48.867Z,1.30
2018-06-03T20:51:17.707Z,1.00
2018-06-03T20:53:46.150Z,1.13
2018-06-03T20:56:15.202Z,0.90
2018-06-03T20:58:43.592Z,1.00
2018-06-03T21:01:12.036Z,0.70
2018-06-03T21:03:40.428Z,0.83
2018-06-03T21:06:08.789Z,1.10
2018-06-03T21:08:37.078Z,1.10
2018-06-03T21:11:05.440Z,1.17
2018-06-03T21:13:33.936Z,1.27
2018-06-03T21:16:02.427Z,1.10
2018-06-03T21:18:30.787Z,0.90
2018-06-03T21:20:59.175Z,0.90
2018-06-03T21:23:27.700Z,0.80
2018-06-03T21:25:56.098Z,1.00
2018-06-03T21:28:24.455Z,0.90
2018-06-03T21:30:52.931Z,0.87
2018-06-03T21:33:21.336Z,1.00
2018-06-03T21:35:49.745Z,1.10
2018-06-03T21:38:18.188Z,1.20
2018-06-03T21:40:46.643Z,1.03
2018-06-03T21:43:15.141Z,0.97
2018-06-03T21:45:43.501Z,1.00
2018-06-03T21:48:11.807Z,1.00
2018-06-03T21:50:40.174Z,1.00
2018-06-03T21:53:08.480Z,1.03
2018-06-03T21:55:36.863Z,1.07
2018-06-03T21:58:05.168Z,0.90
2018-06-03T22:00:33.511Z,1.00
2018-06-03T22:03:01.782Z,0.80
2018-06-03T22:05:30.112Z,0.83
2018-06-03T22:07:59.244Z,0.90
2018-06-03T22:10:27.675Z,1.30
2018-06-03T22:12:56.054Z,1.27
2018-06-03T22:15:24.394Z,0.90
2018-06-03T22:17:52.742Z,1.43
2018-06-03T22:20:21.211Z,1.50
2018-06-03T22:22:49.655Z,1.07
2018-06-03T22:25:18.138Z,1.33
2018-06-03T22:27:46.528Z,1.23
2018-06-03T22:30:15.002Z,1.00
2018-06-03T22:32:43.343Z,1.00
2018-06-03T22:35:11.691Z,1.30
2018-06-03T22:37:40.205Z,1.50
2018-06-03T22:40:09.096Z,1.40
2018-06-03T22:42:37.430Z,1.13
2018-06-03T22:45:05.726Z,1.07
2018-06-03T22:47:34.016Z,1.30
2018-06-03T22:50:02.484Z,1.30
2018-06-03T22:52:30.853Z,1.40
2018-06-03T22:54:59.214Z,1.10
2018-06-03T22:57:46.403Z,1.37
2018-06-03T23:00:20.139Z,1.27
2018-06-03T23:02:53.993Z,1.20
2018-06-03T23:05:22.316Z,1.10
2018-06-03T23:07:51.318Z,1.40
2018-06-03T23:10:19.810Z,1.50
2018-06-03T23:12:48.167Z,1.20
2018-06-03T23:15:16.890Z,1.90
2018-06-03T23:17:45.297Z,1.57
2018-06-03T23:20:13.629Z,1.60
2018-06-03T23:22:41.994Z,1.60
2018-06-03T23:25:10.281Z,1.50
2018-06-03T23:27:38.648Z,1.43
2018-06-03T23:30:07.011Z,1.60
2018-06-03T23:32:35.512Z,1.50
2018-06-03T23:35:03.976Z,1.97
2018-06-03T23:37:32.440Z,1.47
2018-06-03T23:40:00.856Z,1.47
2018-06-03T23:42:29.430Z,1.67
2018-06-03T23:44:57.727Z,1.90
2018-06-03T23:47:26.028Z,1.30
2018-06-03T23:49:54.564Z,1.67
2018-06-03T23:52:23.685Z,2.20
2018-06-03T23:54:52.101Z,2.00
2018-06-03T23:57:20.516Z,2.10
2018-06-03T23:59:48.844Z,1.87
